sensor_id;sensor_type;location;lat;lon;timestamp;P1;durP1;ratioP1;P2;durP2;ratioP2
28304;SDS011;15569;42.652;23.040;2022-08-01T00:00:25;15.35;;;13.10;;
28304;SDS011;15569;42.652;23.040;2022-08-01T00:02:51;18.60;;;16.65;;
28304;SDS011;15569;42.652;23.040;2022-08-01T00:05:16;27.10;;;24.17;;
28304;SDS011;15569;42.652;23.040;2022-08-01T00:07:41;38.03;;;31.13;;
28304;SDS011;15569;42.652;23.040;2022-08-01T00:10:08;34.22;;;30.70;;
28304;SDS011;15569;42.652;23.040;2022-08-01T00:12:39;33.83;;;27.00;;
28304;SDS011;15569;42.652;23.040;2022-08-01T00:15:05;29.50;;;26.38;;
28304;SDS011;15569;42.652;23.040;2022-08-01T00:17:32;28.92;;;25.80;;
28304;SDS011;15569;42.652;23.040;2022-08-01T00:19:57;27.75;;;24.30;;
28304;SDS011;15569;42.652;23.040;2022-08-01T00:22:23;25.23;;;22.52;;
28304;SDS011;15569;42.652;23.040;2022-08-01T00:24:48;31.45;;;28.13;;
28304;SDS011;15569;42.652;23.040;2022-08-01T00:27:14;36.03;;;31.05;;
28304;SDS011;15569;42.652;23.040;2022-08-01T00:29:40;40.03;;;30.80;;
28304;SDS011;15569;42.652;23.040;2022-08-01T00:32:05;32.38;;;28.88;;
28304;SDS011;15569;42.652;23.040;2022-08-01T00:34:31;32.05;;;28.23;;
28304;SDS011;15569;42.652;23.040;2022-08-01T00:36:57;28.98;;;25.75;;
28304;SDS011;15569;42.652;23.040;2022-08-01T00:39:22;29.83;;;26.75;;
28304;SDS011;15569;42.652;23.040;2022-08-01T00:41:47;27.58;;;24.55;;
28304;SDS011;15569;42.652;23.040;2022-08-01T00:44:13;25.35;;;21.63;;
28304;SDS011;15569;42.652;23.040;2022-08-01T00:46:38;25.83;;;21.70;;
28304;SDS011;15569;42.652;23.040;2022-08-01T00:49:04;23.65;;;18.35;;
28304;SDS011;15569;42.652;23.040;2022-08-01T00:51:29;22.35;;;19.27;;
28304;SDS011;15569;42.652;23.040;2022-08-01T00:53:55;19.67;;;17.55;;
28304;SDS011;15569;42.652;23.040;2022-08-01T00:56:21;23.45;;;17.45;;
28304;SDS011;15569;42.652;23.040;2022-08-01T00:58:50;18.03;;;15.93;;
28304;SDS011;15569;42.652;23.040;2022-08-01T01:01:15;18.40;;;15.70;;
28304;SDS011;15569;42.652;23.040;2022-08-01T01:03:41;16.05;;;13.77;;
28304;SDS011;15569;42.652;23.040;2022-08-01T01:11:51;17.25;;;13.98;;
28304;SDS011;15569;42.652;23.040;2022-08-01T01:14:32;16.88;;;12.57;;
28304;SDS011;15569;42.652;23.040;2022-08-01T01:17:02;15.43;;;12.63;;
28304;SDS011;15569;42.652;23.040;2022-08-01T01:19:32;18.38;;;12.70;;
28304;SDS011;15569;42.652;23.040;2022-08-01T01:22:16;18.50;;;10.88;;
28304;SDS011;15569;42.652;23.040;2022-08-01T01:30:02;12.20;;;10.38;;
28304;SDS011;15569;42.652;23.040;2022-08-01T01:32:38;11.88;;;9.82;;
28304;SDS011;15569;42.652;23.040;2022-08-01T01:35:11;11.18;;;8.20;;
28304;SDS011;15569;42.652;23.040;2022-08-01T01:37:40;9.60;;;8.43;;
28304;SDS011;15569;42.652;23.040;2022-08-01T01:40:09;12.68;;;7.35;;
28304;SDS011;15569;42.652;23.040;2022-08-01T01:42:36;11.15;;;8.93;;
28304;SDS011;15569;42.652;23.040;2022-08-01T01:45:02;11.95;;;7.40;;
28304;SDS011;15569;42.652;23.040;2022-08-01T01:47:28;7.85;;;7.00;;
28304;SDS011;15569;42.652;23.040;2022-08-01T01:49:55;9.73;;;6.93;;
28304;SDS011;15569;42.652;23.040;2022-08-01T01:52:23;6.55;;;5.88;;
28304;SDS011;15569;42.652;23.040;2022-08-01T01:54:50;7.30;;;6.55;;
28304;SDS011;15569;42.652;23.040;2022-08-01T01:57:17;6.50;;;5.70;;
28304;SDS011;15569;42.652;23.040;2022-08-01T01:59:44;6.55;;;5.15;;
28304;SDS011;15569;42.652;23.040;2022-08-01T02:02:10;6.03;;;5.00;;
28304;SDS011;15569;42.652;23.040;2022-08-01T02:04:40;8.65;;;6.05;;
28304;SDS011;15569;42.652;23.040;2022-08-01T02:07:08;6.45;;;5.80;;
28304;SDS011;15569;42.652;23.040;2022-08-01T02:09:35;10.25;;;5.13;;
28304;SDS011;15569;42.652;23.040;2022-08-01T02:12:02;6.10;;;5.53;;
28304;SDS011;15569;42.652;23.040;2022-08-01T02:14:30;6.57;;;5.85;;
28304;SDS011;15569;42.652;23.040;2022-08-01T02:16:58;5.45;;;4.95;;
28304;SDS011;15569;42.652;23.040;2022-08-01T02:19:25;6.40;;;5.05;;
28304;SDS011;15569;42.652;23.040;2022-08-01T02:21:57;6.20;;;5.55;;
28304;SDS011;15569;42.652;23.040;2022-08-01T02:24:37;8.05;;;5.38;;
28304;SDS011;15569;42.652;23.040;2022-08-01T02:27:28;5.63;;;4.93;;
28304;SDS011;15569;42.652;23.040;2022-08-01T02:30:00;8.30;;;5.50;;
28304;SDS011;15569;42.652;23.040;2022-08-01T02:32:39;9.73;;;5.80;;
28304;SDS011;15569;42.652;23.040;2022-08-01T02:35:13;7.90;;;5.30;;
28304;SDS011;15569;42.652;23.040;2022-08-01T02:37:43;6.85;;;5.50;;
28304;SDS011;15569;42.652;23.040;2022-08-01T02:40:11;7.82;;;6.30;;
28304;SDS011;15569;42.652;23.040;2022-08-01T02:42:38;7.22;;;5.68;;
28304;SDS011;15569;42.652;23.040;2022-08-01T02:45:10;8.52;;;6.75;;
28304;SDS011;15569;42.652;23.040;2022-08-01T02:47:37;10.88;;;6.15;;
28304;SDS011;15569;42.652;23.040;2022-08-01T02:50:05;9.73;;;7.63;;
28304;SDS011;15569;42.652;23.040;2022-08-01T02:52:33;12.82;;;8.88;;
28304;SDS011;15569;42.652;23.040;2022-08-01T02:55:01;15.77;;;9.40;;
28304;SDS011;15569;42.652;23.040;2022-08-01T02:57:27;10.65;;;7.50;;
28304;SDS011;15569;42.652;23.040;2022-08-01T02:59:54;11.70;;;6.90;;
28304;SDS011;15569;42.652;23.040;2022-08-01T03:02:21;11.95;;;6.32;;
28304;SDS011;15569;42.652;23.040;2022-08-01T03:04:49;18.65;;;9.30;;
28304;SDS011;15569;42.652;23.040;2022-08-01T03:07:16;15.38;;;9.27;;
28304;SDS011;15569;42.652;23.040;2022-08-01T03:09:44;14.93;;;7.97;;
28304;SDS011;15569;42.652;23.040;2022-08-01T03:12:15;15.88;;;9.52;;
28304;SDS011;15569;42.652;23.040;2022-08-01T03:14:44;19.13;;;9.38;;
28304;SDS011;15569;42.652;23.040;2022-08-01T03:17:12;16.40;;;10.02;;
28304;SDS011;15569;42.652;23.040;2022-08-01T03:19:39;15.60;;;9.07;;
28304;SDS011;15569;42.652;23.040;2022-08-01T03:22:08;17.83;;;9.13;;
28304;SDS011;15569;42.652;23.040;2022-08-01T03:24:36;17.63;;;8.83;;
28304;SDS011;15569;42.652;23.040;2022-08-01T03:27:04;16.17;;;8.30;;
28304;SDS011;15569;42.652;23.040;2022-08-01T03:29:31;18.90;;;10.25;;
28304;SDS011;15569;42.652;23.040;2022-08-01T03:31:59;17.83;;;9.35;;
28304;SDS011;15569;42.652;23.040;2022-08-01T03:34:25;18.05;;;10.50;;
28304;SDS011;15569;42.652;23.040;2022-08-01T03:39:30;21.83;;;10.55;;
28304;SDS011;15569;42.652;23.040;2022-08-01T03:42:01;20.58;;;10.27;;
28304;SDS011;15569;42.652;23.040;2022-08-01T03:44:31;18.63;;;9.57;;
28304;SDS011;15569;42.652;23.040;2022-08-01T03:46:59;22.20;;;10.15;;
28304;SDS011;15569;42.652;23.040;2022-08-01T03:49:30;18.83;;;9.10;;
28304;SDS011;15569;42.652;23.040;2022-08-01T03:51:58;20.48;;;9.55;;
28304;SDS011;15569;42.652;23.040;2022-08-01T03:54:28;16.63;;;9.25;;
28304;SDS011;15569;42.652;23.040;2022-08-01T03:56:58;17.67;;;10.13;;
28304;SDS011;15569;42.652;23.040;2022-08-01T03:59:25;21.33;;;9.55;;
28304;SDS011;15569;42.652;23.040;2022-08-01T04:01:51;21.50;;;9.00;;
28304;SDS011;15569;42.652;23.040;2022-08-01T04:04:18;22.85;;;10.63;;
28304;SDS011;15569;42.652;23.040;2022-08-01T04:06:44;19.63;;;10.57;;
28304;SDS011;15569;42.652;23.040;2022-08-01T04:09:09;17.88;;;10.10;;
28304;SDS011;15569;42.652;23.040;2022-08-01T04:14:27;20.20;;;9.20;;
28304;SDS011;15569;42.652;23.040;2022-08-01T04:16:53;15.55;;;9.27;;
28304;SDS011;15569;42.652;23.040;2022-08-01T04:19:19;20.80;;;9.63;;
28304;SDS011;15569;42.652;23.040;2022-08-01T04:21:45;15.57;;;8.65;;
28304;SDS011;15569;42.652;23.040;2022-08-01T04:24:12;22.58;;;9.77;;
28304;SDS011;15569;42.652;23.040;2022-08-01T04:29:08;13.75;;;8.07;;
28304;SDS011;15569;42.652;23.040;2022-08-01T04:31:35;15.48;;;8.48;;
28304;SDS011;15569;42.652;23.040;2022-08-01T04:34:02;15.80;;;7.65;;
28304;SDS011;15569;42.652;23.040;2022-08-01T04:36:30;18.23;;;9.23;;
28304;SDS011;15569;42.652;23.040;2022-08-01T04:39:00;23.10;;;10.65;;
28304;SDS011;15569;42.652;23.040;2022-08-01T04:41:27;21.33;;;9.77;;
28304;SDS011;15569;42.652;23.040;2022-08-01T04:43:55;28.48;;;12.05;;
28304;SDS011;15569;42.652;23.040;2022-08-01T04:46:24;25.23;;;10.95;;
28304;SDS011;15569;42.652;23.040;2022-08-01T04:48:50;32.03;;;12.02;;
28304;SDS011;15569;42.652;23.040;2022-08-01T04:51:16;27.65;;;10.93;;
28304;SDS011;15569;42.652;23.040;2022-08-01T04:53:42;24.02;;;10.52;;
28304;SDS011;15569;42.652;23.040;2022-08-01T04:56:11;27.38;;;11.80;;
28304;SDS011;15569;42.652;23.040;2022-08-01T04:58:38;30.92;;;13.55;;
28304;SDS011;15569;42.652;23.040;2022-08-01T05:01:07;37.92;;;14.90;;
28304;SDS011;15569;42.652;23.040;2022-08-01T05:03:33;41.63;;;14.57;;
28304;SDS011;15569;42.652;23.040;2022-08-01T05:05:58;37.67;;;13.77;;
28304;SDS011;15569;42.652;23.040;2022-08-01T05:08:24;38.35;;;12.55;;
28304;SDS011;15569;42.652;23.040;2022-08-01T05:10:49;27.98;;;11.68;;
28304;SDS011;15569;42.652;23.040;2022-08-01T05:13:15;33.78;;;12.52;;
28304;SDS011;15569;42.652;23.040;2022-08-01T05:15:40;26.30;;;11.55;;
28304;SDS011;15569;42.652;23.040;2022-08-01T05:18:06;30.75;;;12.35;;
28304;SDS011;15569;42.652;23.040;2022-08-01T05:20:31;35.08;;;12.30;;
28304;SDS011;15569;42.652;23.040;2022-08-01T05:22:57;35.28;;;11.65;;
28304;SDS011;15569;42.652;23.040;2022-08-01T05:25:22;33.85;;;12.13;;
28304;SDS011;15569;42.652;23.040;2022-08-01T05:27:48;33.88;;;11.73;;
28304;SDS011;15569;42.652;23.040;2022-08-01T05:30:14;23.55;;;11.27;;
28304;SDS011;15569;42.652;23.040;2022-08-01T05:32:39;31.70;;;11.65;;
28304;SDS011;15569;42.652;23.040;2022-08-01T05:35:06;38.17;;;12.75;;
28304;SDS011;15569;42.652;23.040;2022-08-01T05:37:32;30.27;;;12.05;;
28304;SDS011;15569;42.652;23.040;2022-08-01T05:39:57;24.73;;;10.75;;
28304;SDS011;15569;42.652;23.040;2022-08-01T05:42:23;30.23;;;12.07;;
28304;SDS011;15569;42.652;23.040;2022-08-01T05:44:48;33.67;;;13.45;;
28304;SDS011;15569;42.652;23.040;2022-08-01T05:47:15;33.85;;;11.27;;
28304;SDS011;15569;42.652;23.040;2022-08-01T05:49:40;25.05;;;10.70;;
28304;SDS011;15569;42.652;23.040;2022-08-01T05:52:06;24.38;;;11.10;;
28304;SDS011;15569;42.652;23.040;2022-08-01T05:54:32;20.10;;;10.27;;
28304;SDS011;15569;42.652;23.040;2022-08-01T05:56:57;19.15;;;9.10;;
28304;SDS011;15569;42.652;23.040;2022-08-01T05:59:26;16.40;;;7.55;;
28304;SDS011;15569;42.652;23.040;2022-08-01T06:01:54;17.38;;;7.82;;
28304;SDS011;15569;42.652;23.040;2022-08-01T06:04:20;14.10;;;8.13;;
28304;SDS011;15569;42.652;23.040;2022-08-01T06:06:46;14.05;;;6.32;;
28304;SDS011;15569;42.652;23.040;2022-08-01T06:09:11;16.88;;;7.03;;
28304;SDS011;15569;42.652;23.040;2022-08-01T06:11:38;14.40;;;7.20;;
28304;SDS011;15569;42.652;23.040;2022-08-01T06:14:03;7.97;;;4.93;;
28304;SDS011;15569;42.652;23.040;2022-08-01T06:16:28;17.30;;;7.32;;
28304;SDS011;15569;42.652;23.040;2022-08-01T06:18:54;10.02;;;5.43;;
28304;SDS011;15569;42.652;23.040;2022-08-01T06:21:19;16.55;;;6.22;;
28304;SDS011;15569;42.652;23.040;2022-08-01T06:23:45;12.20;;;5.68;;
28304;SDS011;15569;42.652;23.040;2022-08-01T06:26:10;10.23;;;5.97;;
28304;SDS011;15569;42.652;23.040;2022-08-01T06:28:36;15.45;;;5.63;;
28304;SDS011;15569;42.652;23.040;2022-08-01T06:31:02;17.33;;;12.05;;
28304;SDS011;15569;42.652;23.040;2022-08-01T06:33:27;18.98;;;7.00;;
28304;SDS011;15569;42.652;23.040;2022-08-01T06:35:53;14.57;;;6.75;;
28304;SDS011;15569;42.652;23.040;2022-08-01T06:38:19;13.77;;;5.70;;
28304;SDS011;15569;42.652;23.040;2022-08-01T06:40:44;12.02;;;6.30;;
28304;SDS011;15569;42.652;23.040;2022-08-01T06:43:09;23.88;;;7.10;;
28304;SDS011;15569;42.652;23.040;2022-08-01T06:45:37;24.27;;;14.52;;
28304;SDS011;15569;42.652;23.040;2022-08-01T06:48:03;31.10;;;21.17;;
28304;SDS011;15569;42.652;23.040;2022-08-01T06:50:29;12.75;;;8.85;;
28304;SDS011;15569;42.652;23.040;2022-08-01T06:52:54;17.85;;;11.38;;
28304;SDS011;15569;42.652;23.040;2022-08-01T06:55:20;15.13;;;10.38;;
28304;SDS011;15569;42.652;23.040;2022-08-01T06:57:46;32.00;;;22.17;;
28304;SDS011;15569;42.652;23.040;2022-08-01T07:00:13;25.95;;;22.15;;
28304;SDS011;15569;42.652;23.040;2022-08-01T07:02:41;17.63;;;15.70;;
28304;SDS011;15569;42.652;23.040;2022-08-01T07:05:06;8.40;;;6.85;;
28304;SDS011;15569;42.652;23.040;2022-08-01T07:07:32;15.27;;;10.88;;
28304;SDS011;15569;42.652;23.040;2022-08-01T07:09:57;28.63;;;17.98;;
28304;SDS011;15569;42.652;23.040;2022-08-01T07:12:23;10.80;;;9.75;;
28304;SDS011;15569;42.652;23.040;2022-08-01T07:14:48;20.38;;;13.15;;
28304;SDS011;15569;42.652;23.040;2022-08-01T07:17:13;25.77;;;17.73;;
28304;SDS011;15569;42.652;23.040;2022-08-01T07:19:39;6.57;;;5.20;;
28304;SDS011;15569;42.652;23.040;2022-08-01T07:22:04;12.40;;;9.02;;
28304;SDS011;15569;42.652;23.040;2022-08-01T07:24:30;7.40;;;3.90;;
28304;SDS011;15569;42.652;23.040;2022-08-01T07:26:56;4.13;;;3.50;;
28304;SDS011;15569;42.652;23.040;2022-08-01T07:29:25;4.47;;;3.55;;
28304;SDS011;15569;42.652;23.040;2022-08-01T07:31:51;20.00;;;12.73;;
28304;SDS011;15569;42.652;23.040;2022-08-01T07:34:18;32.20;;;18.55;;
28304;SDS011;15569;42.652;23.040;2022-08-01T07:36:43;20.05;;;15.15;;
28304;SDS011;15569;42.652;23.040;2022-08-01T07:39:09;16.77;;;14.13;;
28304;SDS011;15569;42.652;23.040;2022-08-01T07:41:34;7.57;;;4.97;;
28304;SDS011;15569;42.652;23.040;2022-08-01T07:44:00;7.30;;;5.50;;
28304;SDS011;15569;42.652;23.040;2022-08-01T07:46:25;6.18;;;4.57;;
28304;SDS011;15569;42.652;23.040;2022-08-01T07:48:50;6.93;;;4.25;;
28304;SDS011;15569;42.652;23.040;2022-08-01T07:51:16;5.07;;;3.20;;
28304;SDS011;15569;42.652;23.040;2022-08-01T07:53:41;6.00;;;5.10;;
28304;SDS011;15569;42.652;23.040;2022-08-01T07:56:07;5.35;;;3.95;;
28304;SDS011;15569;42.652;23.040;2022-08-01T07:58:32;6.50;;;4.50;;
28304;SDS011;15569;42.652;23.040;2022-08-01T08:00:58;14.73;;;4.65;;
28304;SDS011;15569;42.652;23.040;2022-08-01T08:03:24;5.53;;;3.70;;
28304;SDS011;15569;42.652;23.040;2022-08-01T08:05:49;4.00;;;2.90;;
28304;SDS011;15569;42.652;23.040;2022-08-01T08:08:15;7.20;;;3.65;;
28304;SDS011;15569;42.652;23.040;2022-08-01T08:10:42;11.43;;;2.95;;
28304;SDS011;15569;42.652;23.040;2022-08-01T08:13:07;3.80;;;2.40;;
28304;SDS011;15569;42.652;23.040;2022-08-01T08:15:33;8.95;;;2.72;;
28304;SDS011;15569;42.652;23.040;2022-08-01T08:17:58;4.65;;;2.55;;
28304;SDS011;15569;42.652;23.040;2022-08-01T08:20:24;3.42;;;2.70;;
28304;SDS011;15569;42.652;23.040;2022-08-01T08:25:19;3.78;;;2.47;;
28304;SDS011;15569;42.652;23.040;2022-08-01T08:27:45;6.55;;;2.83;;
28304;SDS011;15569;42.652;23.040;2022-08-01T08:30:11;7.13;;;3.38;;
28304;SDS011;15569;42.652;23.040;2022-08-01T08:32:37;4.05;;;3.20;;
28304;SDS011;15569;42.652;23.040;2022-08-01T08:35:04;2.53;;;2.30;;
28304;SDS011;15569;42.652;23.040;2022-08-01T08:37:31;8.23;;;2.28;;
28304;SDS011;15569;42.652;23.040;2022-08-01T08:39:57;3.55;;;2.35;;
28304;SDS011;15569;42.652;23.040;2022-08-01T08:42:22;3.05;;;2.35;;
28304;SDS011;15569;42.652;23.040;2022-08-01T08:44:48;3.45;;;2.72;;
28304;SDS011;15569;42.652;23.040;2022-08-01T08:47:13;3.15;;;2.30;;
28304;SDS011;15569;42.652;23.040;2022-08-01T08:49:40;2.80;;;2.17;;
28304;SDS011;15569;42.652;23.040;2022-08-01T08:52:07;2.97;;;2.03;;
28304;SDS011;15569;42.652;23.040;2022-08-01T08:54:34;3.97;;;2.40;;
28304;SDS011;15569;42.652;23.040;2022-08-01T08:57:02;2.30;;;2.10;;
28304;SDS011;15569;42.652;23.040;2022-08-01T08:59:28;2.88;;;2.65;;
28304;SDS011;15569;42.652;23.040;2022-08-01T09:01:54;2.70;;;2.45;;
28304;SDS011;15569;42.652;23.040;2022-08-01T09:04:20;4.70;;;2.40;;
28304;SDS011;15569;42.652;23.040;2022-08-01T09:06:49;3.13;;;2.40;;
28304;SDS011;15569;42.652;23.040;2022-08-01T09:09:15;2.83;;;2.55;;
28304;SDS011;15569;42.652;23.040;2022-08-01T09:11:41;2.40;;;2.20;;
28304;SDS011;15569;42.652;23.040;2022-08-01T09:14:13;3.97;;;2.70;;
28304;SDS011;15569;42.652;23.040;2022-08-01T09:16:47;2.95;;;2.65;;
28304;SDS011;15569;42.652;23.040;2022-08-01T09:19:23;3.17;;;2.80;;
28304;SDS011;15569;42.652;23.040;2022-08-01T09:21:59;7.28;;;2.92;;
28304;SDS011;15569;42.652;23.040;2022-08-01T09:24:26;7.63;;;3.63;;
28304;SDS011;15569;42.652;23.040;2022-08-01T09:26:53;3.38;;;2.50;;
28304;SDS011;15569;42.652;23.040;2022-08-01T09:29:26;4.57;;;2.53;;
28304;SDS011;15569;42.652;23.040;2022-08-01T09:31:53;49.00;;;23.45;;
28304;SDS011;15569;42.652;23.040;2022-08-01T09:34:24;15.95;;;12.13;;
28304;SDS011;15569;42.652;23.040;2022-08-01T09:39:22;17.33;;;11.82;;
28304;SDS011;15569;42.652;23.040;2022-08-01T09:41:49;12.05;;;9.20;;
28304;SDS011;15569;42.652;23.040;2022-08-01T09:44:16;6.95;;;6.25;;
28304;SDS011;15569;42.652;23.040;2022-08-01T09:46:50;28.75;;;18.05;;
28304;SDS011;15569;42.652;23.040;2022-08-01T09:49:30;76.35;;;44.97;;
28304;SDS011;15569;42.652;23.040;2022-08-01T09:51:59;28.42;;;19.67;;
28304;SDS011;15569;42.652;23.040;2022-08-01T09:54:35;53.67;;;30.80;;
28304;SDS011;15569;42.652;23.040;2022-08-01T09:57:08;13.27;;;9.48;;
28304;SDS011;15569;42.652;23.040;2022-08-01T09:59:36;8.50;;;5.70;;
28304;SDS011;15569;42.652;23.040;2022-08-01T10:02:03;7.22;;;5.53;;
28304;SDS011;15569;42.652;23.040;2022-08-01T10:04:28;7.53;;;5.07;;
28304;SDS011;15569;42.652;23.040;2022-08-01T10:06:57;3.95;;;2.97;;
28304;SDS011;15569;42.652;23.040;2022-08-01T10:09:30;5.22;;;3.35;;
28304;SDS011;15569;42.652;23.040;2022-08-01T10:11:57;5.60;;;3.85;;
28304;SDS011;15569;42.652;23.040;2022-08-01T10:14:25;2.42;;;2.22;;
28304;SDS011;15569;42.652;23.040;2022-08-01T10:16:52;8.98;;;3.28;;
28304;SDS011;15569;42.652;23.040;2022-08-01T10:19:18;106.28;;;63.88;;
28304;SDS011;15569;42.652;23.040;2022-08-01T10:21:46;32.13;;;21.38;;
28304;SDS011;15569;42.652;23.040;2022-08-01T10:24:15;10.43;;;6.57;;
28304;SDS011;15569;42.652;23.040;2022-08-01T10:26:42;46.13;;;28.10;;
28304;SDS011;15569;42.652;23.040;2022-08-01T10:29:09;16.52;;;12.00;;
28304;SDS011;15569;42.652;23.040;2022-08-01T10:31:36;4.70;;;4.20;;
28304;SDS011;15569;42.652;23.040;2022-08-01T10:34:02;7.85;;;5.30;;
28304;SDS011;15569;42.652;23.040;2022-08-01T10:36:29;4.68;;;3.42;;
28304;SDS011;15569;42.652;23.040;2022-08-01T10:42:09;4.85;;;2.95;;
28304;SDS011;15569;42.652;23.040;2022-08-01T10:44:36;42.30;;;26.58;;
28304;SDS011;15569;42.652;23.040;2022-08-01T10:47:13;13.13;;;9.70;;
28304;SDS011;15569;42.652;23.040;2022-08-01T10:50:04;12.98;;;6.97;;
28304;SDS011;15569;42.652;23.040;2022-08-01T10:52:36;4.03;;;3.17;;
28304;SDS011;15569;42.652;23.040;2022-08-01T10:55:06;5.40;;;3.00;;
28304;SDS011;15569;42.652;23.040;2022-08-01T10:57:46;4.45;;;2.60;;
28304;SDS011;15569;42.652;23.040;2022-08-01T11:00:19;7.25;;;3.15;;
28304;SDS011;15569;42.652;23.040;2022-08-01T11:02:58;9.85;;;7.07;;
28304;SDS011;15569;42.652;23.040;2022-08-01T11:05:27;17.40;;;11.35;;
28304;SDS011;15569;42.652;23.040;2022-08-01T11:07:55;14.70;;;9.80;;
28304;SDS011;15569;42.652;23.040;2022-08-01T11:13:05;10.95;;;6.65;;
28304;SDS011;15569;42.652;23.040;2022-08-01T11:15:36;3.88;;;3.58;;
28304;SDS011;15569;42.652;23.040;2022-08-01T11:20:56;5.28;;;4.53;;
28304;SDS011;15569;42.652;23.040;2022-08-01T11:23:24;5.30;;;3.65;;
28304;SDS011;15569;42.652;23.040;2022-08-01T11:28:25;8.07;;;4.60;;
28304;SDS011;15569;42.652;23.040;2022-08-01T11:34:02;4.03;;;3.63;;
28304;SDS011;15569;42.652;23.040;2022-08-01T11:43:59;3.38;;;3.08;;
28304;SDS011;15569;42.652;23.040;2022-08-01T11:52:06;8.80;;;7.07;;
28304;SDS011;15569;42.652;23.040;2022-08-01T11:54:40;26.33;;;16.70;;
28304;SDS011;15569;42.652;23.040;2022-08-01T11:59:46;15.52;;;10.40;;
28304;SDS011;15569;42.652;23.040;2022-08-01T12:07:21;17.35;;;10.75;;
28304;SDS011;15569;42.652;23.040;2022-08-01T12:09:47;17.42;;;9.10;;
28304;SDS011;15569;42.652;23.040;2022-08-01T12:12:16;5.22;;;4.32;;
28304;SDS011;15569;42.652;23.040;2022-08-01T12:14:44;4.18;;;3.22;;
28304;SDS011;15569;42.652;23.040;2022-08-01T12:17:10;4.32;;;3.92;;
28304;SDS011;15569;42.652;23.040;2022-08-01T12:19:36;4.80;;;4.05;;
28304;SDS011;15569;42.652;23.040;2022-08-01T12:22:12;4.28;;;3.25;;
28304;SDS011;15569;42.652;23.040;2022-08-01T12:24:39;4.22;;;3.33;;
28304;SDS011;15569;42.652;23.040;2022-08-01T12:27:06;12.65;;;8.70;;
28304;SDS011;15569;42.652;23.040;2022-08-01T12:31:59;8.07;;;7.28;;
28304;SDS011;15569;42.652;23.040;2022-08-01T12:34:24;13.13;;;11.82;;
28304;SDS011;15569;42.652;23.040;2022-08-01T12:36:54;21.65;;;14.00;;
28304;SDS011;15569;42.652;23.040;2022-08-01T12:39:20;33.20;;;21.05;;
28304;SDS011;15569;42.652;23.040;2022-08-01T12:41:46;45.22;;;30.33;;
28304;SDS011;15569;42.652;23.040;2022-08-01T12:44:14;21.85;;;16.80;;
28304;SDS011;15569;42.652;23.040;2022-08-01T12:46:40;16.35;;;13.93;;
28304;SDS011;15569;42.652;23.040;2022-08-01T12:49:06;7.15;;;4.88;;
28304;SDS011;15569;42.652;23.040;2022-08-01T12:51:32;44.05;;;25.63;;
28304;SDS011;15569;42.652;23.040;2022-08-01T12:53:59;5.32;;;4.80;;
28304;SDS011;15569;42.652;23.040;2022-08-01T12:56:31;7.75;;;5.43;;
28304;SDS011;15569;42.652;23.040;2022-08-01T12:58:57;13.68;;;8.75;;
28304;SDS011;15569;42.652;23.040;2022-08-01T13:01:26;5.53;;;4.60;;
28304;SDS011;15569;42.652;23.040;2022-08-01T13:04:00;4.43;;;3.47;;
28304;SDS011;15569;42.652;23.040;2022-08-01T13:06:29;8.93;;;4.93;;
28304;SDS011;15569;42.652;23.040;2022-08-01T13:08:55;5.32;;;4.50;;
28304;SDS011;15569;42.652;23.040;2022-08-01T13:11:30;3.70;;;3.22;;
28304;SDS011;15569;42.652;23.040;2022-08-01T13:13:56;3.30;;;2.97;;
28304;SDS011;15569;42.652;23.040;2022-08-01T13:16:23;4.63;;;2.65;;
28304;SDS011;15569;42.652;23.040;2022-08-01T13:18:59;3.00;;;2.70;;
28304;SDS011;15569;42.652;23.040;2022-08-01T13:21:26;4.10;;;2.88;;
28304;SDS011;15569;42.652;23.040;2022-08-01T13:26:40;2.03;;;1.90;;
28304;SDS011;15569;42.652;23.040;2022-08-01T13:29:06;2.83;;;2.20;;
28304;SDS011;15569;42.652;23.040;2022-08-01T13:31:33;5.40;;;2.45;;
28304;SDS011;15569;42.652;23.040;2022-08-01T13:34:02;7.70;;;3.58;;
28304;SDS011;15569;42.652;23.040;2022-08-01T13:36:28;11.82;;;9.73;;
28304;SDS011;15569;42.652;23.040;2022-08-01T13:38:55;16.30;;;12.65;;
28304;SDS011;15569;42.652;23.040;2022-08-01T13:41:40;6.43;;;5.15;;
28304;SDS011;15569;42.652;23.040;2022-08-01T13:44:06;25.80;;;18.73;;
28304;SDS011;15569;42.652;23.040;2022-08-01T13:46:34;8.45;;;6.57;;
28304;SDS011;15569;42.652;23.040;2022-08-01T13:49:00;13.38;;;9.57;;
28304;SDS011;15569;42.652;23.040;2022-08-01T13:51:25;4.70;;;4.25;;
28304;SDS011;15569;42.652;23.040;2022-08-01T13:53:51;4.10;;;3.65;;
28304;SDS011;15569;42.652;23.040;2022-08-01T13:56:16;5.20;;;2.90;;
28304;SDS011;15569;42.652;23.040;2022-08-01T13:58:42;4.00;;;3.42;;
28304;SDS011;15569;42.652;23.040;2022-08-01T14:01:08;3.95;;;3.30;;
28304;SDS011;15569;42.652;23.040;2022-08-01T14:03:33;6.68;;;3.67;;
28304;SDS011;15569;42.652;23.040;2022-08-01T14:05:59;2.55;;;2.22;;
28304;SDS011;15569;42.652;23.040;2022-08-01T14:08:25;5.03;;;2.35;;
28304;SDS011;15569;42.652;23.040;2022-08-01T14:10:50;5.72;;;2.75;;
28304;SDS011;15569;42.652;23.040;2022-08-01T14:13:17;2.33;;;2.13;;
28304;SDS011;15569;42.652;23.040;2022-08-01T14:15:42;4.10;;;2.38;;
28304;SDS011;15569;42.652;23.040;2022-08-01T14:18:08;3.67;;;2.10;;
28304;SDS011;15569;42.652;23.040;2022-08-01T14:20:34;2.88;;;2.30;;
28304;SDS011;15569;42.652;23.040;2022-08-01T14:23:00;2.40;;;2.17;;
28304;SDS011;15569;42.652;23.040;2022-08-01T14:25:25;4.28;;;2.40;;
28304;SDS011;15569;42.652;23.040;2022-08-01T14:27:51;2.30;;;2.10;;
28304;SDS011;15569;42.652;23.040;2022-08-01T14:30:16;4.03;;;2.13;;
28304;SDS011;15569;42.652;23.040;2022-08-01T14:32:41;3.83;;;2.10;;
28304;SDS011;15569;42.652;23.040;2022-08-01T14:35:07;2.97;;;2.45;;
28304;SDS011;15569;42.652;23.040;2022-08-01T14:37:33;2.28;;;2.08;;
28304;SDS011;15569;42.652;23.040;2022-08-01T14:39:59;1.88;;;1.67;;
28304;SDS011;15569;42.652;23.040;2022-08-01T14:42:29;2.10;;;1.90;;
28304;SDS011;15569;42.652;23.040;2022-08-01T14:44:55;20.05;;;13.63;;
28304;SDS011;15569;42.652;23.040;2022-08-01T14:47:20;20.92;;;18.85;;
28304;SDS011;15569;42.652;23.040;2022-08-01T14:49:46;44.33;;;30.98;;
28304;SDS011;15569;42.652;23.040;2022-08-01T14:52:11;48.60;;;32.25;;
28304;SDS011;15569;42.652;23.040;2022-08-01T14:54:37;9.95;;;8.50;;
28304;SDS011;15569;42.652;23.040;2022-08-01T14:57:02;4.60;;;4.18;;
28304;SDS011;15569;42.652;23.040;2022-08-01T14:59:28;10.20;;;6.25;;
28304;SDS011;15569;42.652;23.040;2022-08-01T15:01:53;5.53;;;3.38;;
28304;SDS011;15569;42.652;23.040;2022-08-01T15:04:19;2.75;;;2.25;;
28304;SDS011;15569;42.652;23.040;2022-08-01T15:06:44;3.25;;;2.20;;
28304;SDS011;15569;42.652;23.040;2022-08-01T15:09:09;2.70;;;2.38;;
28304;SDS011;15569;42.652;23.040;2022-08-01T15:11:35;5.95;;;2.65;;
28304;SDS011;15569;42.652;23.040;2022-08-01T15:14:01;2.97;;;2.35;;
28304;SDS011;15569;42.652;23.040;2022-08-01T15:17:02;2.28;;;1.88;;
28304;SDS011;15569;42.652;23.040;2022-08-01T15:19:27;3.78;;;2.20;;
28304;SDS011;15569;42.652;23.040;2022-08-01T15:21:52;1.83;;;1.63;;
28304;SDS011;15569;42.652;23.040;2022-08-01T15:24:18;1.85;;;1.73;;
28304;SDS011;15569;42.652;23.040;2022-08-01T15:26:43;1.77;;;1.35;;
28304;SDS011;15569;42.652;23.040;2022-08-01T15:29:09;2.80;;;1.63;;